Time;durP1;ratioP1;P1;durP2;ratioP2;P2;SDS_P1;SDS_P2;PMS_P1;PMS_P2;Temp;Humidity;BMP_temperature;BMP_pressure;BME280_temperature;BME280_humidity;BME280_pressure;Samples;Min_cycle;Max_cycle;Signal;HPM_P1;HPM_P2
2021/12/03 00:01:24;;;;;;;11.93;7.68;;;-1.70;99.90;;;-3.90;100.00;100723.41;2568065;30;137377;-36
2021/12/03 00:03:53;;;;;;;11.80;8.33;;;-1.80;99.90;;;-3.90;100.00;100718.06;2569277;30;137335;-36
2021/12/03 00:06:21;;;;;;;12.07;8.27;;;-1.80;99.90;;;-3.92;100.00;100714.66;2567635;30;138374;-36
2021/12/03 00:08:48;;;;;;;14.48;9.10;;;-1.80;99.90;;;-3.95;100.00;100712.25;2568653;30;137603;-36
2021/12/03 00:11:17;;;;;;;14.00;8.07;;;-1.90;99.90;;;-3.95;100.00;100717.59;2565101;30;139427;-36
2021/12/03 00:13:45;;;;;;;13.88;8.48;;;-1.80;99.90;;;-3.97;100.00;100711.53;2568106;30;136986;-36
2021/12/03 00:16:13;;;;;;;13.32;8.82;;;-1.80;99.90;;;-3.96;100.00;100712.34;2567490;30;139104;-36
2021/12/03 00:18:41;;;;;;;14.70;9.07;;;-1.80;99.90;;;-3.95;100.00;100712.25;2569023;30;136994;-36
2021/12/03 00:21:11;;;;;;;14.55;8.65;;;-1.80;99.90;;;-3.95;100.00;100708.72;2568122;30;138460;-36
2021/12/03 00:23:40;;;;;;;15.38;10.07;;;-1.80;99.90;;;-3.95;100.00;100695.38;2568796;30;137107;-36
2021/12/03 00:26:08;;;;;;;16.63;10.57;;;-1.80;99.90;;;-3.85;100.00;100707.00;2568449;30;137531;-36
2021/12/03 00:28:38;;;;;;;18.00;10.32;;;-1.80;99.90;;;-3.82;100.00;100708.59;2565462;30;137452;-36
2021/12/03 00:31:08;;;;;;;17.27;10.60;;;-1.80;99.90;;;-3.79;100.00;100711.88;2565066;30;139280;-36
2021/12/03 00:33:38;;;;;;;15.95;10.68;;;-1.70;99.90;;;-3.71;100.00;100716.63;2565926;30;137043;-36
2021/12/03 00:36:10;;;;;;;18.77;11.30;;;-1.70;99.90;;;-3.64;100.00;100709.81;2566592;30;138224;-36
2021/12/03 00:38:45;;;;;;;21.77;12.52;;;-1.60;99.90;;;-3.62;100.00;100717.69;2568512;30;136765;-36
2021/12/03 00:41:18;;;;;;;20.38;11.63;;;-1.60;99.90;;;-3.66;100.00;100719.75;2567504;30;138298;-36
2021/12/03 00:43:50;;;;;;;21.55;11.80;;;-1.60;99.90;;;-3.63;100.00;100718.66;2566130;30;137893;-36
2021/12/03 00:46:21;;;;;;;17.58;11.50;;;-1.60;99.90;;;-3.58;100.00;100728.97;2568999;30;138132;-36
2021/12/03 00:48:53;;;;;;;21.83;12.68;;;-1.50;99.90;;;-3.57;100.00;100728.00;2567923;30;137590;-36
2021/12/03 00:51:23;;;;;;;22.27;12.85;;;-1.50;99.90;;;-3.54;100.00;100731.28;2567467;30;138201;-36
2021/12/03 00:53:52;;;;;;;22.65;12.10;;;-1.50;99.90;;;-3.53;100.00;100732.09;2567381;30;137518;-36
2021/12/03 00:56:20;;;;;;;24.38;14.05;;;-1.50;99.90;;;-3.54;100.00;100725.06;2566105;30;137492;-36
2021/12/03 00:58:48;;;;;;;22.38;13.02;;;-1.50;99.90;;;-3.56;100.00;100724.34;2566507;30;137298;-36
2021/12/03 01:01:16;;;;;;;;;;;-1.50;99.90;;;-3.58;100.00;100719.16;2567729;30;138519;-36
2021/12/03 01:03:44;;;;;;;21.00;13.10;;;-1.50;99.90;;;-3.59;100.00;100716.59;2568186;30;137311;-36
2021/12/03 01:06:14;;;;;;;24.58;13.48;;;-1.50;99.90;;;-3.57;100.00;100725.31;2567281;30;138448;-36
2021/12/03 01:08:42;;;;;;;;;;;-1.50;99.90;;;-3.52;100.00;100745.31;2567923;30;137790;-36
2021/12/03 01:11:11;;;;;;;23.65;13.52;;;-1.50;99.90;;;-3.50;100.00;100740.72;2568473;30;136766;-36
2021/12/03 01:13:43;;;;;;;26.20;14.85;;;-1.50;99.90;;;-3.45;100.00;100737.66;2569267;30;137527;-36
2021/12/03 01:16:14;;;;;;;22.83;14.27;;;-1.40;99.90;;;-3.38;100.00;100744.22;2568338;30;138245;-36
2021/12/03 01:18:45;;;;;;;26.13;15.07;;;-1.30;99.90;;;-3.27;100.00;100742.50;2568937;30;137239;-36
2021/12/03 01:21:14;;;;;;;26.27;15.68;;;-1.30;99.90;;;-3.14;100.00;100745.00;2568675;30;139099;-36
2021/12/03 01:23:42;;;;;;;28.10;15.38;;;-1.20;99.90;;;-3.03;100.00;100756.50;2566356;30;136869;-35
2021/12/03 01:26:13;;;;;;;28.27;15.57;;;-1.10;99.90;;;-2.99;100.00;100749.13;2565772;30;139539;-36
2021/12/03 01:28:42;;;;;;;28.17;16.33;;;-1.00;99.90;;;-2.85;100.00;100739.97;2568011;30;137416;-36
2021/12/03 01:31:10;;;;;;;27.63;15.52;;;-0.90;99.90;;;-2.75;100.00;100746.22;2568432;30;137314;-36
2021/12/03 01:33:37;;;;;;;;;;;-0.80;99.90;;;-2.63;100.00;100739.00;2568121;30;137253;-36
2021/12/03 01:36:05;;;;;;;31.23;16.92;;;-0.70;99.90;;;-2.44;100.00;100745.50;2566650;30;138245;-36
2021/12/03 01:38:33;;;;;;;32.55;18.75;;;-0.60;99.90;;;-2.31;100.00;100735.44;2566621;30;137291;-36
2021/12/03 01:41:01;;;;;;;35.25;17.73;;;-0.40;99.90;;;-2.24;100.00;100741.13;2566293;30;138456;-36
2021/12/03 01:43:30;;;;;;;33.33;18.63;;;-0.40;99.90;;;-2.18;100.00;100732.56;2568861;30;136872;-36
2021/12/03 01:46:08;;;;;;;36.30;19.20;;;-0.30;99.90;;;-2.12;100.00;100735.69;2568045;30;138122;-36
2021/12/03 01:48:37;;;;;;;36.03;19.10;;;-0.20;99.90;;;-2.07;100.00;100738.84;2568405;30;137577;-36
2021/12/03 01:51:06;;;;;;;35.55;18.52;;;-0.20;99.90;;;-1.97;100.00;100730.88;2568296;30;138388;-36
2021/12/03 01:53:38;;;;;;;33.17;18.92;;;-0.10;99.90;;;-1.86;100.00;100727.25;2568364;30;137405;-36
2021/12/03 01:56:12;;;;;;;39.50;19.17;;;0.00;99.90;;;-1.84;100.00;100734.16;2568127;30;137429;-36
2021/12/03 01:58:42;;;;;;;38.85;19.60;;;0.10;99.90;;;-1.74;100.00;100734.22;2567504;30;137452;-36
2021/12/03 02:01:15;;;;;;;33.38;18.80;;;0.10;99.90;;;-1.71;100.00;100741.13;2568410;30;138413;-36
2021/12/03 02:03:48;;;;;;;38.38;18.88;;;0.20;99.90;;;-1.67;100.00;100751.41;2567148;30;136866;-36
2021/12/03 02:06:16;;;;;;;39.85;20.48;;;0.20;99.90;;;-1.63;100.00;100750.16;2568450;30;139286;-36
2021/12/03 02:08:44;;;;;;;41.15;20.55;;;0.30;99.90;;;-1.56;100.00;100755.00;2567939;30;138473;-36
2021/12/03 02:11:14;;;;;;;41.40;20.63;;;0.30;99.90;;;-1.50;100.00;100757.13;2568155;30;137865;-35
2021/12/03 02:13:42;;;;;;;39.63;20.77;;;0.40;99.90;;;-1.50;100.00;100746.41;2568989;30;136702;-36
2021/12/03 02:16:12;;;;;;;;;;;0.40;99.90;;;-1.39;100.00;100756.19;2567477;30;137363;-36
2021/12/03 02:18:40;;;;;;;33.83;17.98;;;0.50;99.90;;;-1.38;100.00;100742.63;2568155;30;137137;-36
2021/12/03 02:21:10;;;;;;;;;;;0.50;99.90;;;-1.33;100.00;100745.78;2568475;30;139310;-36
2021/12/03 02:23:38;;;;;;;;;;;0.50;99.90;;;-1.39;100.00;100746.31;2568168;30;137096;-36
2021/12/03 02:26:06;;;;;;;41.53;19.33;;;0.60;99.90;;;-1.33;100.00;100745.78;2568450;30;137469;-36
2021/12/03 02:28:40;;;;;;;41.25;19.70;;;0.60;99.90;;;-1.29;100.00;100756.22;2567108;30;137475;-36
2021/12/03 02:31:08;;;;;;;42.00;18.60;;;0.60;99.90;;;-1.24;100.00;100749.44;2568823;30;138161;-36
2021/12/03 02:33:36;;;;;;;39.05;19.80;;;0.60;99.90;;;-1.19;100.00;100760.63;2569269;30;137569;-36
2021/12/03 02:36:06;;;;;;;38.03;18.95;;;0.70;99.90;;;-1.20;100.00;100750.84;2569778;30;138375;-36
2021/12/03 02:38:33;;;;;;;43.50;19.70;;;0.70;99.90;;;-1.14;100.00;100754.00;2568648;30;137119;-36
2021/12/03 02:41:02;;;;;;;42.22;20.20;;;0.70;99.90;;;-1.11;100.00;100748.34;2568821;30;138160;-36
2021/12/03 02:43:30;;;;;;;35.22;17.23;;;0.70;99.90;;;-1.06;100.00;100746.97;2566015;30;136811;-36
2021/12/03 02:45:58;;;;;;;41.95;18.92;;;0.80;99.90;;;-1.03;100.00;100748.50;2568210;30;139274;-36
2021/12/03 02:48:27;;;;;;;38.72;18.33;;;0.80;99.90;;;-0.94;100.00;100760.22;2568595;30;136883;-36
2021/12/03 02:50:55;;;;;;;41.38;19.25;;;0.90;99.90;;;-0.93;100.00;100756.56;2567076;30;138306;-36
2021/12/03 02:53:23;;;;;;;43.50;18.10;;;0.90;99.90;;;-0.84;100.00;100753.03;2564624;30;137897;-36
2021/12/03 02:55:51;;;;;;;;;;;1.00;99.90;;;-0.80;100.00;100749.09;2569166;30;138380;-35
2021/12/03 02:58:20;;;;;;;37.22;16.30;;;1.00;99.90;;;-0.81;100.00;100746.56;2568489;30;137716;-36
2021/12/03 03:00:51;;;;;;;41.67;17.58;;;1.10;99.90;;;-0.77;100.00;100740.78;2568772;30;138336;-35
2021/12/03 03:03:20;;;;;;;39.63;16.60;;;1.10;99.90;;;-0.79;100.00;100748.13;2568555;30;137669;-36
2021/12/03 03:05:58;;;;;;;37.42;16.88;;;1.10;99.90;;;-0.76;100.00;100752.34;2567540;30;138220;-36
2021/12/03 03:08:27;;;;;;;38.47;17.08;;;1.10;99.90;;;-0.74;100.00;100753.91;2567067;30;136864;-36
2021/12/03 03:11:00;;;;;;;34.50;16.85;;;1.10;99.90;;;-0.74;100.00;100745.88;2568724;30;139048;-36
2021/12/03 03:13:27;;;;;;;44.40;17.83;;;1.10;99.90;;;-0.70;100.00;100751.78;2569006;30;137537;-36
2021/12/03 03:15:57;;;;;;;40.05;17.73;;;1.10;99.90;;;-0.68;100.00;100757.84;2565915;30;140679;-40
2021/12/03 03:18:27;;;;;;;33.22;15.85;;;1.20;99.90;;;-0.68;100.00;100765.03;2568731;30;138331;-40
2021/12/03 03:21:00;;;;;;;40.40;17.38;;;1.20;99.90;;;-0.60;100.00;100767.88;2567786;30;138155;-40
2021/12/03 03:23:28;;;;;;;38.25;16.48;;;1.20;99.90;;;-0.52;100.00;100775.19;2566733;30;137890;-40
2021/12/03 03:25:56;;;;;;;40.90;17.65;;;1.30;99.90;;;-0.55;100.00;100762.91;2568357;30;137447;-40
2021/12/03 03:28:25;;;;;;;34.85;16.75;;;1.30;99.90;;;-0.50;100.00;100762.50;2568015;30;138371;-40
2021/12/03 03:30:59;;;;;;;40.55;18.30;;;1.30;99.90;;;-0.52;100.00;100753.75;2567486;30;139335;-40
2021/12/03 03:33:29;;;;;;;34.40;16.23;;;1.30;99.90;;;-0.50;100.00;100752.66;2569028;30;137384;-40
2021/12/03 03:35:57;;;;;;;38.20;17.48;;;1.30;99.90;;;-0.51;100.00;100752.78;2568031;30;138232;-40
2021/12/03 03:38:25;;;;;;;36.95;14.88;;;1.30;99.90;;;-0.48;100.00;100757.84;2568570;30;137482;-40
2021/12/03 03:40:54;;;;;;;32.97;14.82;;;1.30;99.90;;;-0.38;100.00;100755.16;2566301;30;138980;-40
2021/12/03 03:43:22;;;;;;;32.80;15.13;;;1.40;99.90;;;-0.41;100.00;100745.56;2567752;30;137646;-40
2021/12/03 03:45:51;;;;;;;33.63;15.50;;;1.40;99.90;;;-0.42;100.00;100743.88;2565045;30;138032;-40
2021/12/03 03:48:19;;;;;;;37.50;15.82;;;1.40;99.90;;;-0.41;100.00;100740.19;2567988;30;136847;-40
2021/12/03 03:50:47;;;;;;;30.45;16.05;;;1.40;99.90;;;-0.45;100.00;100739.66;2567760;30;138272;-40
2021/12/03 03:53:15;;;;;;;30.92;15.60;;;1.40;99.90;;;-0.44;100.00;100746.72;2565625;30;136856;-40
2021/12/03 03:55:43;;;;;;;35.28;16.10;;;1.40;99.90;;;-0.38;100.00;100744.44;2567388;30;137959;-40
2021/12/03 03:58:10;;;;;;;34.92;15.13;;;1.40;99.90;;;-0.38;100.00;100733.72;2568077;30;137226;-40
2021/12/03 04:00:44;;;;;;;29.63;15.50;;;1.50;99.90;;;-0.36;100.00;100726.38;2567119;30;139126;-40
2021/12/03 04:03:14;;;;;;;34.58;15.13;;;1.50;99.90;;;-0.37;100.00;100728.22;2568085;30;137059;-40
2021/12/03 04:05:42;;;;;;;29.95;14.35;;;1.50;99.90;;;-0.39;100.00;100721.31;2565956;30;138748;-40
2021/12/03 04:08:10;;;;;;;28.20;14.45;;;1.50;99.90;;;-0.41;100.00;100710.72;2568367;30;137399;-40
2021/12/03 04:10:38;;;;;;;29.63;15.35;;;1.50;99.90;;;-0.41;100.00;100705.34;2566128;30;138572;-40
2021/12/03 04:13:05;;;;;;;33.28;14.30;;;1.50;99.90;;;-0.38;100.00;100709.59;2568983;30;137382;-40
2021/12/03 04:15:34;;;;;;;32.58;14.40;;;1.50;99.90;;;-0.32;100.00;100712.53;2567769;30;138237;-40
2021/12/03 04:18:01;;;;;;;31.92;14.38;;;1.50;99.90;;;-0.28;100.00;100715.75;2567688;30;138138;-40
2021/12/03 04:20:29;;;;;;;34.22;14.32;;;1.60;99.90;;;-0.20;100.00;100709.69;2567992;30;137122;-40
2021/12/03 04:22:57;;;;;;;22.30;12.70;;;1.60;99.90;;;-0.20;100.00;100707.88;2568082;30;137418;-40
2021/12/03 04:25:24;;;;;;;29.88;13.90;;;1.60;99.90;;;-0.13;100.00;100705.47;2566296;30;138747;-40
2021/12/03 04:27:53;;;;;;;31.08;14.88;;;1.60;99.90;;;-0.10;100.00;100705.16;2568141;30;137546;-40
2021/12/03 04:30:25;;;;;;;29.48;13.82;;;1.70;99.90;;;-0.08;100.00;100708.53;2564851;30;137462;-40
2021/12/03 04:32:54;;;;;;;27.45;13.63;;;1.70;99.90;;;-0.05;100.00;100710.06;2567599;30;136986;-40
2021/12/03 04:35:24;;;;;;;27.70;13.93;;;1.70;99.90;;;-0.09;100.00;100708.69;2566859;30;138989;-40
2021/12/03 04:37:53;;;;;;;28.45;13.23;;;1.80;99.90;;;-0.08;100.00;100703.19;2567626;30;137346;-40
2021/12/03 04:40:23;;;;;;;30.65;13.55;;;1.80;99.90;;;0.02;100.00;100699.59;2567696;30;139126;-40
2021/12/03 04:42:51;;;;;;;30.58;13.50;;;1.80;99.90;;;0.05;100.00;100693.94;2567919;30;137569;-40
2021/12/03 04:45:23;;;;;;;24.33;12.95;;;1.90;99.90;;;0.09;100.00;100685.47;2566539;30;139317;-40
2021/12/03 04:47:53;;;;;;;27.27;13.05;;;1.90;99.90;;;0.06;100.00;100684.91;2567644;30;138376;-40
2021/12/03 04:50:24;;;;;;;27.05;13.68;;;1.90;99.90;;;0.13;100.00;100696.72;2567471;30;140471;-40
2021/12/03 04:52:52;;;;;;;27.00;13.13;;;1.90;99.90;;;0.14;100.00;100696.59;2567145;30;138302;-40
2021/12/03 04:55:22;;;;;;;27.98;13.20;;;1.90;99.90;;;0.18;100.00;100696.31;2566284;30;137413;-40
2021/12/03 04:57:53;;;;;;;25.38;13.23;;;2.00;99.90;;;0.19;100.00;100692.63;2567651;30;138871;-40
2021/12/03 05:00:34;;;;;;;30.80;14.00;;;2.00;99.90;;;0.21;100.00;100702.22;2568231;30;139233;-40
2021/12/03 05:03:02;;;;;;;25.65;12.90;;;2.00;99.90;;;0.17;100.00;100702.66;2567390;30;138730;-40
2021/12/03 05:05:32;;;;;;;26.85;13.07;;;2.00;99.90;;;0.21;100.00;100706.72;2565521;30;138582;-40
2021/12/03 05:08:04;;;;;;;26.13;12.93;;;2.00;99.90;;;0.19;100.00;100714.94;2568441;30;137341;-40
2021/12/03 05:10:37;;;;;;;27.27;12.43;;;2.00;99.90;;;0.25;100.00;100710.81;2567983;30;137237;-40
2021/12/03 05:13:25;;;;;;;29.00;13.13;;;2.00;99.90;;;0.24;100.00;100711.81;2566168;30;138181;-40
2021/12/03 05:15:53;;;;;;;24.75;12.15;;;2.10;99.90;;;0.23;100.00;100710.13;2565913;30;139231;-40
2021/12/03 05:18:22;;;;;;;;;;;2.00;99.90;;;0.16;100.00;100698.28;2569326;30;137462;-40
2021/12/03 05:20:54;;;;;;;27.17;13.05;;;2.10;99.90;;;0.29;100.00;100714.91;2568211;30;138282;-40
2021/12/03 05:23:24;;;;;;;28.05;12.73;;;2.10;99.90;;;0.22;100.00;100706.59;2567910;30;138232;-40
2021/12/03 05:25:52;;;;;;;27.15;13.35;;;2.10;99.90;;;0.27;100.00;100711.53;2569098;30;137119;-40
2021/12/03 05:28:19;;;;;;;24.15;12.52;;;2.10;99.90;;;0.26;100.00;100707.13;2568183;30;137518;-40
2021/12/03 05:30:50;;;;;;;28.10;12.65;;;2.10;99.90;;;0.30;100.00;100705.00;2568882;30;138297;-40
2021/12/03 05:33:19;;;;;;;30.15;12.00;;;2.10;99.90;;;0.32;100.00;100713.75;2568806;30;136978;-40
2021/12/03 05:35:47;;;;;;;27.85;13.07;;;2.10;99.90;;;0.24;100.00;100704.63;2567129;30;138212;-40
2021/12/03 05:38:16;;;;;;;28.35;13.20;;;2.10;99.90;;;0.27;100.00;100716.91;2568036;30;137542;-40
2021/12/03 05:40:45;;;;;;;27.27;13.20;;;2.10;99.90;;;0.30;100.00;100711.22;2568763;30;138696;-40
2021/12/03 05:43:16;;;;;;;32.13;13.95;;;2.10;99.90;;;0.35;100.00;100716.13;2567802;30;136876;-40
2021/12/03 05:45:45;;;;;;;26.95;12.68;;;2.20;99.90;;;0.32;100.00;100727.19;2568058;30;139086;-40
2021/12/03 05:48:13;;;;;;;30.30;13.68;;;2.10;99.90;;;0.30;100.00;100729.16;2568582;30;137142;-40
2021/12/03 05:50:42;;;;;;;26.55;12.57;;;2.10;99.90;;;0.28;100.00;100727.47;2567385;30;137351;-40
2021/12/03 05:53:09;;;;;;;27.85;13.18;;;2.10;99.90;;;0.31;100.00;100718.28;2569028;30;137052;-40
2021/12/03 05:55:37;;;;;;;29.85;13.18;;;2.10;99.90;;;0.34;100.00;100717.13;2567685;30;138321;-40
2021/12/03 05:58:05;;;;;;;31.73;13.95;;;2.10;99.90;;;0.38;100.00;100711.34;2568596;30;137624;-40
2021/12/03 06:00:40;;;;;;;28.92;13.13;;;2.20;99.90;;;0.40;100.00;100711.19;2569095;30;137315;-40
2021/12/03 06:03:08;;;;;;;32.58;14.35;;;2.20;99.90;;;0.42;100.00;100709.22;2568874;30;137356;-40
2021/12/03 06:05:39;;;;;;;30.08;13.27;;;2.20;99.90;;;0.43;100.00;100717.09;2565932;30;138400;-40
2021/12/03 06:08:07;;;;;;;32.13;14.88;;;2.20;99.90;;;0.38;100.00;100700.59;2568097;30;138380;-40
2021/12/03 06:10:35;;;;;;;28.13;14.07;;;2.30;99.90;;;0.42;100.00;100711.91;2567997;30;138223;-40
2021/12/03 06:13:04;;;;;;;32.97;15.27;;;2.20;99.90;;;0.41;100.00;100712.88;2568793;30;137645;-40
2021/12/03 06:15:32;;;;;;;31.27;14.10;;;2.20;99.90;;;0.43;100.00;100717.09;2568698;30;138340;-40
2021/12/03 06:17:59;;;;;;;36.80;15.38;;;2.30;99.90;;;0.54;100.00;100715.22;2566847;30;137814;-40
2021/12/03 06:20:27;;;;;;;31.02;13.90;;;2.30;99.90;;;0.54;100.00;100713.38;2568621;30;137129;-40
2021/12/03 06:22:55;;;;;;;30.98;13.95;;;2.30;99.90;;;0.54;100.00;100702.63;2566363;30;137469;-40
2021/12/03 06:25:23;;;;;;;33.92;15.05;;;2.40;99.90;;;0.55;100.00;100707.00;2566478;30;138324;-40
2021/12/03 06:27:54;;;;;;;;;;;2.40;99.90;;;0.57;100.00;100709.56;2568200;30;137506;-40
2021/12/03 06:30:23;;;;;;;29.58;12.18;;;2.40;99.90;;;0.54;100.00;100708.00;2567414;30;138290;-40
2021/12/03 06:32:52;;;;;;;33.72;14.48;;;2.40;99.90;;;0.61;100.00;100713.63;2568255;30;137809;-40
2021/12/03 06:35:21;;;;;;;35.25;14.15;;;2.40;99.90;;;0.63;100.00;100717.00;2567627;30;138310;-40
2021/12/03 06:37:50;;;;;;;30.38;12.98;;;2.40;99.90;;;0.67;100.00;100715.69;2566561;30;137969;-40
2021/12/03 06:40:24;;;;;;;34.47;14.27;;;2.50;99.90;;;0.71;100.00;100710.88;2567629;30;138521;-40
2021/12/03 06:42:53;;;;;;;31.98;14.63;;;2.50;99.90;;;0.76;100.00;100705.03;2567593;30;138449;-40
2021/12/03 06:45:21;;;;;;;31.75;14.82;;;2.50;99.90;;;0.71;100.00;100714.41;2568685;30;138282;-40
2021/12/03 06:47:49;;;;;;;33.25;14.32;;;2.50;99.90;;;0.72;100.00;100709.88;2568287;30;137611;-40
2021/12/03 06:50:21;;;;;;;35.15;14.30;;;2.50;99.90;;;0.75;100.00;100700.66;2568291;30;138346;-40
2021/12/03 06:52:55;;;;;;;36.80;14.65;;;2.50;99.90;;;0.78;100.00;100695.00;2567714;30;137812;-40
2021/12/03 06:55:23;;;;;;;32.30;13.52;;;2.60;99.90;;;0.81;100.00;100689.34;2567725;30;138314;-40
2021/12/03 06:57:51;;;;;;;29.67;12.95;;;2.60;99.90;;;0.82;100.00;100697.22;2565925;30;137580;-40
2021/12/03 07:00:19;;;;;;;29.58;13.55;;;2.60;99.90;;;0.88;100.00;100693.09;2567497;30;139180;-40
2021/12/03 07:02:46;;;;;;;28.45;13.38;;;2.70;99.90;;;0.87;100.00;100691.41;2567353;30;137501;-40
2021/12/03 07:05:14;;;;;;;33.83;13.70;;;2.60;99.90;;;0.90;100.00;100691.09;2568987;30;138211;-40
2021/12/03 07:07:42;;;;;;;30.67;13.50;;;2.70;99.90;;;0.86;100.00;100705.84;2567831;30;136871;-40
2021/12/03 07:10:10;;;;;;;27.80;13.15;;;2.70;99.90;;;0.93;100.00;100696.16;2568084;30;137169;-40
2021/12/03 07:12:38;;;;;;;31.77;14.48;;;2.70;99.90;;;0.97;100.00;100702.91;2567813;30;136900;-40
2021/12/03 07:15:06;;;;;;;23.45;11.75;;;2.70;99.90;;;0.98;100.00;100696.56;2567049;30;138245;-40
2021/12/03 07:17:34;;;;;;;27.30;11.88;;;2.70;99.90;;;0.94;100.00;100694.34;2566648;30;137713;-40
2021/12/03 07:20:06;;;;;;;29.75;12.90;;;2.70;99.90;;;0.90;100.00;100695.63;2566543;30;138803;-40
2021/12/03 07:22:34;;;;;;;27.05;11.27;;;2.70;99.90;;;0.89;100.00;100694.78;2568057;30;138343;-40
2021/12/03 07:25:05;;;;;;;26.70;12.38;;;2.70;99.90;;;0.93;100.00;100700.69;2568290;30;138460;-40
2021/12/03 07:27:33;;;;;;;25.17;11.32;;;2.70;99.90;;;0.97;100.00;100694.88;2567760;30;137749;-40
2021/12/03 07:30:01;;;;;;;29.05;10.88;;;2.70;99.90;;;0.92;100.00;100699.00;2568119;30;138350;-40
2021/12/03 07:32:30;;;;;;;21.88;10.23;;;2.70;99.90;;;0.92;100.00;100699.84;2566564;30;137142;-40
2021/12/03 07:34:58;;;;;;;26.27;9.43;;;2.70;99.90;;;1.02;100.00;100696.25;2568360;30;138592;-40
2021/12/03 07:37:26;;;;;;;21.92;8.98;;;2.70;99.90;;;0.98;100.00;100701.94;2568235;30;137185;-40
2021/12/03 07:39:54;;;;;;;;;;;2.80;99.90;;;0.95;100.00;100688.81;2568247;30;139072;-40
2021/12/03 07:42:21;;;;;;;19.65;7.40;;;2.80;99.90;;;0.94;100.00;100684.44;2566653;30;137412;-40
2021/12/03 07:44:49;;;;;;;15.85;6.75;;;2.80;99.90;;;0.85;100.00;100680.81;2568620;30;138237;-40
2021/12/03 07:47:16;;;;;;;14.93;7.35;;;2.70;99.90;;;0.87;100.00;100686.03;2566862;30;137175;-40
2021/12/03 07:49:46;;;;;;;15.57;7.35;;;2.70;99.90;;;0.87;100.00;100691.41;2567308;30;138335;-40
2021/12/03 07:52:15;;;;;;;16.42;6.95;;;2.70;99.90;;;0.80;100.00;100676.91;2568329;30;137590;-40
2021/12/03 07:54:42;;;;;;;18.10;6.95;;;2.70;99.90;;;0.82;100.00;100689.16;2568529;30;138260;-40
2021/12/03 07:57:10;;;;;;;21.02;7.20;;;2.60;99.90;;;0.84;100.00;100683.66;2566632;30;137382;-40
2021/12/03 07:59:38;;;;;;;15.38;6.40;;;2.70;99.90;;;0.84;100.00;100694.41;2568506;30;138588;-40
2021/12/03 08:02:05;;;;;;;20.20;6.93;;;2.70;99.90;;;0.83;100.00;100690.03;2567662;30;138207;-40
2021/12/03 08:04:33;;;;;;;17.08;6.22;;;2.60;99.90;;;0.84;100.00;100687.19;2566312;30;139227;-40
2021/12/03 08:07:01;;;;;;;19.35;6.22;;;2.60;99.90;;;0.81;100.00;100687.47;2568982;30;137476;-40
2021/12/03 08:09:29;;;;;;;19.77;6.28;;;2.60;99.90;;;0.81;100.00;100686.66;2566816;30;138554;-40
2021/12/03 08:11:56;;;;;;;14.60;5.32;;;2.60;99.90;;;0.86;100.00;100687.03;2568286;30;137594;-40
2021/12/03 08:14:24;;;;;;;13.68;5.15;;;2.60;99.90;;;0.86;100.00;100700.47;2566690;30;137213;-40
2021/12/03 08:16:51;;;;;;;18.13;5.70;;;2.60;99.90;;;0.85;100.00;100699.59;2567885;30;137863;-40
2021/12/03 08:19:19;;;;;;;13.25;4.72;;;2.70;99.90;;;0.90;100.00;100715.28;2567402;30;138243;-40
2021/12/03 08:21:47;;;;;;;14.98;5.63;;;2.70;99.90;;;0.88;100.00;100709.22;2568027;30;138204;-40
2021/12/03 08:24:15;;;;;;;15.40;4.80;;;2.60;99.90;;;0.88;100.00;100713.72;2567566;30;138928;-40
2021/12/03 08:26:42;;;;;;;;;;;2.70;99.90;;;0.94;100.00;100716.66;2566643;30;138542;-40
2021/12/03 08:29:10;;;;;;;14.52;5.10;;;2.70;99.90;;;0.97;100.00;100710.97;2568326;30;138273;-40
2021/12/03 08:31:39;;;;;;;15.27;5.05;;;2.70;99.90;;;1.03;100.00;100703.31;2567992;30;137484;-40
2021/12/03 08:34:07;;;;;;;18.40;5.57;;;2.80;99.90;;;1.02;100.00;100688.19;2566992;30;137521;-40
2021/12/03 08:36:35;;;;;;;15.73;5.05;;;2.80;99.90;;;1.07;100.00;100704.72;2565691;30;137418;-40
2021/12/03 08:39:05;;;;;;;14.52;4.78;;;2.80;99.90;;;1.06;100.00;100690.41;2567931;30;136939;-40
2021/12/03 08:41:34;;;;;;;12.25;4.70;;;2.80;99.90;;;1.17;100.00;100683.13;2567601;30;137116;-40
2021/12/03 08:44:04;;;;;;;13.27;4.57;;;2.90;99.90;;;1.17;100.00;100686.66;2568127;30;138062;-40
2021/12/03 08:46:35;;;;;;;16.30;5.00;;;2.90;99.90;;;1.20;100.00;100682.81;2568147;30;137642;-40
2021/12/03 08:49:50;;;;;;;12.27;4.75;;;3.00;99.90;;;1.24;100.00;100682.34;2568652;30;137427;-40
2021/12/03 08:54:55;;;;;;;12.18;4.68;;;3.00;99.90;;;1.28;100.00;100672.97;2568526;30;138187;-40
2021/12/03 08:57:30;;;;;;;10.07;4.55;;;3.00;99.90;;;1.35;100.00;100672.38;2567764;30;137534;-40
2021/12/03 09:00:13;;;;;;;11.55;4.35;;;3.10;99.90;;;1.39;100.00;100671.06;2566259;30;138322;-40
2021/12/03 09:02:42;;;;;;;15.50;4.80;;;3.10;99.90;;;1.48;100.00;100685.41;2566339;30;137551;-40
2021/12/03 09:05:11;;;;;;;11.55;4.38;;;3.20;99.90;;;1.56;99.27;100675.53;2566763;30;139012;-40
2021/12/03 09:07:40;;;;;;;10.88;4.57;;;3.30;99.90;;;1.60;99.31;100672.56;2567183;30;137610;-40
2021/12/03 09:10:13;;;;;;;14.32;4.05;;;3.30;99.90;;;1.65;99.88;100678.31;2566722;30;139136;-41
2021/12/03 09:12:42;;;;;;;9.65;3.70;;;3.40;99.90;;;1.68;99.47;100677.97;2567854;30;137555;-40
2021/12/03 09:15:14;;;;;;;14.88;4.38;;;3.40;99.90;;;1.69;98.28;100669.75;2566623;30;139180;-40
2021/12/03 09:18:08;;;;;;;14.60;4.63;;;3.40;99.90;;;1.76;98.53;100664.56;2568969;30;143651;-35
2021/12/03 09:23:34;;;;;;;15.23;4.18;;;3.50;99.90;;;1.80;97.42;100675.88;2566145;30;137154;-36
2021/12/03 09:26:04;;;;;;;17.50;4.25;;;3.50;99.90;;;1.84;95.91;100680.75;2566977;30;138553;-36
2021/12/03 09:28:34;;;;;;;16.00;4.30;;;3.60;99.90;;;1.89;96.92;100683.00;2566626;30;137521;-36
2021/12/03 09:31:04;;;;;;;10.18;3.70;;;3.60;99.90;;;1.88;96.92;100672.41;2567268;30;139550;-36
2021/12/03 09:33:35;;;;;;;15.18;4.78;;;3.60;99.90;;;1.97;97.20;100668.75;2569519;30;137554;-35
2021/12/03 09:36:04;;;;;;;17.13;4.20;;;3.70;99.90;;;1.98;95.97;100668.56;2567713;30;138570;-36
2021/12/03 09:38:33;;;;;;;15.32;4.80;;;3.70;99.90;;;2.00;96.62;100668.41;2568277;30;137589;-36
2021/12/03 09:41:18;;;;;;;14.00;4.18;;;3.70;99.90;;;2.04;96.33;100663.56;2565560;30;138390;-36
2021/12/03 09:43:53;;;;;;;16.33;4.22;;;3.70;99.90;;;2.08;95.44;100663.06;2567921;30;137539;-35
2021/12/03 09:46:24;;;;;;;17.15;4.28;;;3.80;99.90;;;2.17;96.31;100655.88;2567358;30;138905;-36
2021/12/03 09:56:57;;;;;;;14.50;3.85;;;4.00;99.90;;;2.36;94.35;100653.94;2567805;30;138285;-35
2021/12/03 10:15:24;;;;;;;10.90;3.70;;;4.30;99.90;;;2.56;92.13;100643.72;2567928;30;137505;-35
2021/12/03 10:18:17;;;;;;;11.80;3.45;;;4.30;99.90;;;2.55;91.25;100645.59;2568452;30;138456;-36
2021/12/03 10:20:51;;;;;;;7.03;2.50;;;4.30;99.90;;;2.63;91.10;100635.84;2567539;30;137748;-35
2021/12/03 10:29:45;;;;;;;12.40;3.30;;;4.40;99.90;;;2.68;91.64;100623.56;2566588;30;138881;-35
2021/12/03 10:38:13;;;;;;;9.75;2.50;;;4.50;99.90;;;2.79;90.00;100614.34;2568129;30;137414;-36
2021/12/03 10:57:12;;;;;;;;;;;4.60;99.90;;;2.87;88.70;100592.78;2568538;30;137176;-36
2021/12/03 11:00:16;;;;;;;6.22;2.72;;;4.60;99.90;;;2.86;89.01;100574.06;2568912;30;137059;-36
2021/12/03 11:03:21;;;;;;;7.57;2.50;;;4.60;99.90;;;2.82;89.32;100559.25;2568741;30;137431;-36
2021/12/03 11:37:13;;;;;;;6.25;2.25;;;4.60;99.90;;;2.90;87.64;100520.69;2568355;30;137554;-35
2021/12/03 13:08:48;;;;;;;7.25;2.67;;;5.50;99.90;;;3.90;81.74;100376.34;2568996;30;138516;-36
2021/12/03 13:40:17;;;;;;;5.18;2.40;;;5.70;99.90;;;4.02;80.57;100347.09;2566083;30;137392;-35